createdAt,value
2017-06-30T00:00:02.433Z,0
2017-06-30T00:00:28.542Z,0
2017-06-30T00:00:54.640Z,0
2017-06-30T00:01:20.774Z,0
2017-06-30T00:01:46.865Z,0
2017-06-30T00:02:12.988Z,0
2017-06-30T00:02:39.121Z,0
2017-06-30T00:03:05.216Z,0
2017-06-30T00:03:31.308Z,0
2017-06-30T00:03:57.417Z,0
2017-06-30T00:04:23.513Z,0
2017-06-30T00:04:49.638Z,0
2017-06-30T00:05:15.755Z,0
2017-06-30T00:05:41.849Z,0
2017-06-30T00:06:07.982Z,0
2017-06-30T00:06:34.130Z,0
2017-06-30T00:07:00.245Z,0
2017-06-30T00:07:26.354Z,0
2017-06-30T00:07:52.449Z,0
2017-06-30T00:08:18.563Z,0
2017-06-30T00:08:44.698Z,0
2017-06-30T00:09:10.823Z,0
2017-06-30T00:09:36.919Z,0
2017-06-30T00:10:03.067Z,0
2017-06-30T00:10:29.159Z,0
2017-06-30T00:10:55.268Z,0
2017-06-30T00:11:21.366Z,0
2017-06-30T00:11:47.457Z,0
2017-06-30T00:12:13.561Z,0
2017-06-30T00:12:39.660Z,0
2017-06-30T00:13:05.798Z,0
2017-06-30T00:13:31.903Z,0
2017-06-30T00:13:58.062Z,0
2017-06-30T00:14:24.147Z,0
2017-06-30T00:14:50.248Z,0
2017-06-30T00:15:16.353Z,0
2017-06-30T00:15:42.445Z,0
2017-06-30T00:16:08.547Z,0
2017-06-30T00:16:34.639Z,0
2017-06-30T00:17:00.743Z,0
2017-06-30T00:17:26.850Z,0
2017-06-30T00:17:52.988Z,0
2017-06-30T00:18:19.115Z,0
2017-06-30T00:18:45.221Z,0
2017-06-30T00:19:11.312Z,0
2017-06-30T00:19:37.409Z,0
2017-06-30T00:20:03.513Z,0
2017-06-30T00:20:29.660Z,0
2017-06-30T00:20:55.750Z,0
2017-06-30T00:21:21.883Z,0
2017-06-30T00:21:47.983Z,0
2017-06-30T00:22:14.089Z,0
2017-06-30T00:22:40.180Z,0
2017-06-30T00:23:06.326Z,0
2017-06-30T00:23:32.489Z,0
2017-06-30T00:23:58.611Z,0
2017-06-30T00:24:24.703Z,0
2017-06-30T00:24:50.812Z,0
2017-06-30T00:25:16.909Z,0
2017-06-30T00:25:43.026Z,0
2017-06-30T00:26:09.155Z,0
2017-06-30T00:26:35.255Z,0
2017-06-30T00:27:01.406Z,0
2017-06-30T00:27:27.500Z,0
2017-06-30T00:27:53.617Z,0
2017-06-30T00:28:19.724Z,0
2017-06-30T00:28:45.819Z,0
2017-06-30T00:29:11.911Z,0
2017-06-30T00:29:38.016Z,0
2017-06-30T00:30:04.131Z,0
2017-06-30T00:30:30.254Z,0
2017-06-30T00:30:56.354Z,0
2017-06-30T00:31:22.460Z,0
2017-06-30T00:31:48.546Z,0
2017-06-30T00:32:14.674Z,0
2017-06-30T00:32:40.789Z,0
2017-06-30T00:33:06.893Z,0
2017-06-30T00:33:32.993Z,0
2017-06-30T00:33:59.081Z,0
2017-06-30T00:34:25.185Z,0
2017-06-30T00:34:51.291Z,0
2017-06-30T00:35:17.426Z,0
2017-06-30T00:35:43.550Z,0
2017-06-30T00:36:09.686Z,0
2017-06-30T00:36:35.777Z,0
2017-06-30T00:37:01.874Z,0
2017-06-30T00:37:27.978Z,0
2017-06-30T00:37:54.071Z,0
2017-06-30T00:38:20.161Z,0
2017-06-30T00:38:46.271Z,0
2017-06-30T00:39:12.394Z,0
2017-06-30T00:39:38.486Z,0
2017-06-30T00:40:04.592Z,0
2017-06-30T00:40:30.690Z,0
2017-06-30T00:40:56.806Z,0
2017-06-30T00:41:22.944Z,0
2017-06-30T00:41:49.014Z,0
2017-06-30T00:42:15.103Z,0
2017-06-30T00:42:41.202Z,0
2017-06-30T00:43:07.308Z,0
2017-06-30T00:43:33.398Z,0
2017-06-30T00:43:59.528Z,0
2017-06-30T00:44:25.619Z,0
2017-06-30T00:44:51.721Z,0
2017-06-30T00:45:17.829Z,0
2017-06-30T00:45:43.916Z,0
2017-06-30T00:46:10.039Z,0
2017-06-30T00:46:36.147Z,0
2017-06-30T00:47:02.265Z,0
2017-06-30T00:47:28.385Z,0
2017-06-30T00:47:54.499Z,0
2017-06-30T00:48:20.617Z,0
2017-06-30T00:48:46.707Z,0
2017-06-30T00:49:12.811Z,0
2017-06-30T00:49:38.962Z,0
2017-06-30T00:50:05.068Z,0
2017-06-30T00:50:31.158Z,0
2017-06-30T00:50:57.279Z,0
2017-06-30T00:51:23.384Z,0
2017-06-30T00:51:49.477Z,0
2017-06-30T00:52:15.590Z,0
2017-06-30T00:52:41.699Z,0
2017-06-30T00:53:07.796Z,0
2017-06-30T00:53:33.888Z,0
2017-06-30T00:54:00.022Z,0
2017-06-30T00:54:26.150Z,0
2017-06-30T00:54:52.304Z,0
2017-06-30T00:55:18.399Z,0
2017-06-30T00:55:44.516Z,0
2017-06-30T00:56:10.624Z,0
2017-06-30T00:56:36.720Z,0
2017-06-30T00:57:02.809Z,0
2017-06-30T00:57:28.916Z,0
2017-06-30T00:57:55.041Z,0
2017-06-30T00:58:21.131Z,0
2017-06-30T00:58:47.234Z,0
2017-06-30T00:59:13.340Z,0
2017-06-30T00:59:39.506Z,0
2017-06-30T01:00:05.606Z,0
2017-06-30T01:00:31.699Z,0
2017-06-30T01:00:57.804Z,0
2017-06-30T01:01:23.929Z,0
2017-06-30T01:01:50.043Z,0
2017-06-30T01:02:16.145Z,0
2017-06-30T01:02:42.253Z,0
2017-06-30T01:03:08.365Z,0
2017-06-30T01:03:34.489Z,0
2017-06-30T01:04:00.596Z,0
2017-06-30T01:04:26.736Z,0
2017-06-30T01:04:52.886Z,0
2017-06-30T01:05:19.019Z,0
2017-06-30T01:05:45.112Z,0
2017-06-30T01:06:11.219Z,0
2017-06-30T01:06:37.304Z,0
2017-06-30T01:07:03.431Z,0
2017-06-30T01:07:29.537Z,0
2017-06-30T01:07:55.628Z,0
2017-06-30T01:08:21.726Z,0
2017-06-30T01:08:47.832Z,0
2017-06-30T01:09:13.924Z,0
2017-06-30T01:09:40.017Z,0
2017-06-30T01:10:06.123Z,0
2017-06-30T01:10:32.220Z,0
2017-06-30T01:10:58.311Z,0
2017-06-30T01:11:24.444Z,0
2017-06-30T01:11:50.538Z,0
2017-06-30T01:12:16.671Z,0
2017-06-30T01:12:42.764Z,0
2017-06-30T01:13:08.853Z,0
2017-06-30T01:13:35.011Z,0
2017-06-30T01:14:01.109Z,0
2017-06-30T01:14:27.224Z,0
2017-06-30T01:14:53.358Z,0
2017-06-30T01:15:19.456Z,0
2017-06-30T01:15:45.573Z,0
2017-06-30T01:16:11.702Z,0
2017-06-30T01:16:37.836Z,0
2017-06-30T01:17:03.955Z,0
2017-06-30T01:17:30.129Z,0
2017-06-30T01:17:56.218Z,0
2017-06-30T01:18:22.320Z,0
2017-06-30T01:18:48.419Z,0
2017-06-30T01:19:14.557Z,0
2017-06-30T01:19:40.712Z,0
2017-06-30T01:20:06.848Z,0
2017-06-30T01:20:32.985Z,0
2017-06-30T01:20:59.108Z,0
2017-06-30T01:21:25.298Z,0
2017-06-30T01:21:51.386Z,0
2017-06-30T01:22:17.484Z,0
2017-06-30T01:22:43.646Z,0
2017-06-30T01:23:09.737Z,0
2017-06-30T01:23:35.852Z,0
2017-06-30T01:24:01.990Z,0
2017-06-30T01:24:28.115Z,0
2017-06-30T01:24:54.203Z,0
2017-06-30T01:25:20.337Z,0
2017-06-30T01:25:46.465Z,0
2017-06-30T01:26:12.579Z,0
2017-06-30T01:26:38.682Z,0
2017-06-30T01:27:04.842Z,0
2017-06-30T01:27:30.979Z,0
2017-06-30T01:27:57.080Z,0
2017-06-30T01:28:23.170Z,0
2017-06-30T01:28:49.276Z,0
2017-06-30T01:29:15.376Z,0
2017-06-30T01:29:41.469Z,0
2017-06-30T01:30:07.621Z,0
2017-06-30T01:30:33.728Z,0
2017-06-30T01:30:59.816Z,0
2017-06-30T01:31:25.917Z,0
2017-06-30T01:31:52.023Z,0
2017-06-30T01:32:18.140Z,0
2017-06-30T01:32:44.258Z,0
2017-06-30T01:33:10.364Z,0
2017-06-30T01:33:36.456Z,0
2017-06-30T01:34:02.562Z,0
2017-06-30T01:34:28.673Z,0
2017-06-30T01:34:54.770Z,0
2017-06-30T01:35:20.902Z,0
2017-06-30T01:35:47.044Z,0
2017-06-30T01:36:13.138Z,0
2017-06-30T01:36:39.270Z,0
2017-06-30T01:37:05.363Z,0
2017-06-30T01:37:31.455Z,0
2017-06-30T01:37:57.589Z,0
2017-06-30T01:38:23.686Z,0
2017-06-30T01:38:49.775Z,0
2017-06-30T01:39:15.932Z,0
2017-06-30T01:39:42.025Z,0
2017-06-30T01:40:08.159Z,0
2017-06-30T01:40:34.306Z,0
2017-06-30T01:41:00.421Z,0
2017-06-30T01:41:26.580Z,0
2017-06-30T01:41:52.704Z,0
2017-06-30T01:42:18.791Z,0
2017-06-30T01:42:44.899Z,0
2017-06-30T01:43:10.999Z,0
2017-06-30T01:43:37.090Z,0
2017-06-30T01:44:03.192Z,0
2017-06-30T01:44:29.298Z,0
2017-06-30T01:44:55.390Z,0
2017-06-30T01:45:21.509Z,0
2017-06-30T01:45:47.600Z,0
2017-06-30T01:46:13.733Z,0
2017-06-30T01:46:39.829Z,0
2017-06-30T01:47:05.946Z,0
2017-06-30T01:47:32.051Z,0
2017-06-30T01:47:58.154Z,0
2017-06-30T01:48:24.240Z,0
2017-06-30T01:48:50.337Z,0
2017-06-30T01:49:16.469Z,0
2017-06-30T01:49:42.582Z,0
2017-06-30T01:50:08.679Z,0
2017-06-30T01:50:34.799Z,0
2017-06-30T01:51:00.927Z,0
2017-06-30T01:51:27.033Z,0
2017-06-30T01:51:53.144Z,0
2017-06-30T01:52:19.268Z,0
2017-06-30T01:52:45.399Z,0
2017-06-30T01:53:11.488Z,0
2017-06-30T01:53:37.632Z,0
2017-06-30T01:54:03.736Z,0
2017-06-30T01:54:29.855Z,0
2017-06-30T01:54:55.942Z,0
2017-06-30T01:55:22.078Z,0
2017-06-30T01:55:48.174Z,0
2017-06-30T01:56:14.276Z,0
2017-06-30T01:56:40.366Z,0
2017-06-30T01:57:06.459Z,0
2017-06-30T01:57:32.567Z,0
2017-06-30T01:57:58.686Z,0
2017-06-30T01:58:24.777Z,0
2017-06-30T01:58:50.916Z,0
2017-06-30T01:59:17.035Z,0
2017-06-30T01:59:43.151Z,0
2017-06-30T02:00:09.315Z,0
2017-06-30T02:00:35.408Z,0
2017-06-30T02:01:01.498Z,0
2017-06-30T02:01:27.599Z,0
2017-06-30T02:01:53.688Z,0
2017-06-30T02:02:19.798Z,0
2017-06-30T02:02:45.893Z,0
2017-06-30T02:03:12.016Z,0
2017-06-30T02:03:38.115Z,0
2017-06-30T02:04:04.216Z,0
2017-06-30T02:04:30.329Z,0
2017-06-30T02:04:56.481Z,0
2017-06-30T02:05:22.613Z,0
2017-06-30T02:05:48.700Z,0
2017-06-30T02:06:15.026Z,0
2017-06-30T02:06:41.160Z,0
2017-06-30T02:07:07.274Z,0
2017-06-30T02:07:33.395Z,0
2017-06-30T02:07:59.499Z,0
2017-06-30T02:08:25.593Z,0
2017-06-30T02:08:51.682Z,0
2017-06-30T02:09:17.867Z,0
2017-06-30T02:09:43.991Z,0
2017-06-30T02:10:10.106Z,0
2017-06-30T02:10:36.210Z,0
2017-06-30T02:11:02.308Z,0
2017-06-30T02:11:28.399Z,0
2017-06-30T02:11:54.502Z,0
2017-06-30T02:12:20.607Z,0
2017-06-30T02:12:46.698Z,0
2017-06-30T02:13:12.796Z,0
2017-06-30T02:13:38.911Z,0
2017-06-30T02:14:05.044Z,0
2017-06-30T02:14:31.142Z,0
2017-06-30T02:14:57.231Z,0
2017-06-30T02:15:23.363Z,0
2017-06-30T02:15:49.468Z,0
2017-06-30T02:16:15.605Z,0
2017-06-30T02:16:41.728Z,0
2017-06-30T02:17:07.862Z,0
2017-06-30T02:17:33.977Z,0
2017-06-30T02:18:00.121Z,0
2017-06-30T02:18:26.216Z,0
2017-06-30T02:18:52.372Z,0
2017-06-30T02:19:18.477Z,0
2017-06-30T02:19:44.561Z,0
2017-06-30T02:20:10.662Z,0
2017-06-30T02:20:36.767Z,0
2017-06-30T02:21:02.856Z,0
2017-06-30T02:21:28.975Z,0
2017-06-30T02:21:55.111Z,0
2017-06-30T02:22:21.259Z,0
2017-06-30T02:22:47.346Z,0
2017-06-30T02:23:13.454Z,0
2017-06-30T02:23:39.609Z,0
2017-06-30T02:24:05.803Z,0
2017-06-30T02:24:31.894Z,0
2017-06-30T02:24:57.990Z,0
2017-06-30T02:25:24.095Z,0
2017-06-30T02:25:50.186Z,0
2017-06-30T02:26:16.275Z,0
2017-06-30T02:26:42.386Z,0
2017-06-30T02:27:08.483Z,0
2017-06-30T02:27:34.573Z,0
2017-06-30T02:28:00.679Z,0
2017-06-30T02:28:26.781Z,0
2017-06-30T02:28:52.870Z,0
2017-06-30T02:29:18.997Z,0
2017-06-30T02:29:45.087Z,0
2017-06-30T02:30:11.220Z,0
2017-06-30T02:30:37.316Z,0
2017-06-30T02:31:03.407Z,0
2017-06-30T02:31:29.512Z,0
2017-06-30T02:31:55.612Z,0
2017-06-30T02:32:21.703Z,0
2017-06-30T02:32:47.828Z,0
2017-06-30T02:33:13.962Z,0
2017-06-30T02:33:40.048Z,4
2017-06-30T02:34:06.200Z,4
2017-06-30T02:34:32.330Z,4
2017-06-30T02:34:58.470Z,4
2017-06-30T02:35:24.599Z,4
2017-06-30T02:35:50.713Z,4
2017-06-30T02:36:16.842Z,4
2017-06-30T02:36:43.003Z,4
2017-06-30T02:37:09.090Z,4
2017-06-30T02:37:35.263Z,4
2017-06-30T02:38:01.394Z,0
2017-06-30T02:38:27.508Z,0
2017-06-30T02:38:53.628Z,4
2017-06-30T02:39:19.762Z,4
2017-06-30T02:39:45.854Z,4
2017-06-30T02:40:11.968Z,4
2017-06-30T02:40:38.095Z,4
2017-06-30T02:41:04.192Z,4
2017-06-30T02:41:30.352Z,4
2017-06-30T02:41:56.467Z,8
2017-06-30T02:42:22.562Z,8
2017-06-30T02:42:48.695Z,4
2017-06-30T02:43:14.841Z,4
2017-06-30T02:43:40.956Z,4
2017-06-30T02:44:07.092Z,8
2017-06-30T02:44:33.214Z,8
2017-06-30T02:44:59.329Z,8
2017-06-30T02:45:25.433Z,8
2017-06-30T02:45:51.591Z,8
2017-06-30T02:46:17.687Z,8
2017-06-30T02:46:43.781Z,8
2017-06-30T02:47:09.896Z,8
2017-06-30T02:47:36.032Z,8
2017-06-30T02:48:02.152Z,12
2017-06-30T02:48:28.242Z,12
2017-06-30T02:48:54.350Z,8
2017-06-30T02:49:20.533Z,12
2017-06-30T02:49:46.649Z,12
2017-06-30T02:50:12.751Z,16
2017-06-30T02:50:38.856Z,12
2017-06-30T02:51:04.944Z,16
2017-06-30T02:51:31.068Z,16
2017-06-30T02:51:57.200Z,16
2017-06-30T02:52:23.314Z,20
2017-06-30T02:52:49.411Z,16
2017-06-30T02:53:15.517Z,20
2017-06-30T02:53:41.610Z,20
2017-06-30T02:54:07.703Z,20
2017-06-30T02:54:33.812Z,24
2017-06-30T02:54:59.932Z,24
2017-06-30T02:55:26.051Z,24
2017-06-30T02:55:52.154Z,24
2017-06-30T02:56:18.280Z,28
2017-06-30T02:56:44.368Z,28
2017-06-30T02:57:10.522Z,28
2017-06-30T02:57:36.635Z,32
2017-06-30T02:58:02.744Z,32
2017-06-30T02:58:28.838Z,32
2017-06-30T02:58:54.929Z,32
2017-06-30T02:59:21.037Z,36
2017-06-30T02:59:47.164Z,36
2017-06-30T03:00:13.254Z,40
2017-06-30T03:00:39.355Z,40
2017-06-30T03:01:05.489Z,40
2017-06-30T03:01:31.627Z,44
2017-06-30T03:01:57.751Z,40
2017-06-30T03:02:23.856Z,44
2017-06-30T03:02:49.970Z,48
2017-06-30T03:03:16.099Z,48
2017-06-30T03:03:42.238Z,52
2017-06-30T03:04:08.338Z,48
2017-06-30T03:04:34.472Z,52
2017-06-30T03:05:00.558Z,52
2017-06-30T03:05:26.659Z,56
2017-06-30T03:05:52.795Z,56
2017-06-30T03:06:18.883Z,56
2017-06-30T03:06:45.005Z,60
2017-06-30T03:07:11.110Z,60
2017-06-30T03:07:37.201Z,60
2017-06-30T03:08:03.291Z,64
2017-06-30T03:08:29.392Z,68
2017-06-30T03:08:55.515Z,68
2017-06-30T03:09:21.621Z,72
2017-06-30T03:09:47.709Z,76
2017-06-30T03:10:13.834Z,76
2017-06-30T03:10:39.937Z,80
2017-06-30T03:11:06.029Z,80
2017-06-30T03:11:32.168Z,84
2017-06-30T03:11:58.278Z,88
2017-06-30T03:12:24.375Z,88
2017-06-30T03:12:50.466Z,92
2017-06-30T03:13:16.598Z,92
2017-06-30T03:13:42.724Z,92
2017-06-30T03:14:08.815Z,96
2017-06-30T03:14:34.946Z,100
2017-06-30T03:15:01.051Z,100
2017-06-30T03:15:27.138Z,104
2017-06-30T03:15:53.263Z,108
2017-06-30T03:16:19.369Z,112
2017-06-30T03:16:45.459Z,112
2017-06-30T03:17:11.554Z,116
2017-06-30T03:17:37.661Z,120
2017-06-30T03:18:03.751Z,124
2017-06-30T03:18:29.842Z,124
2017-06-30T03:18:55.975Z,128
2017-06-30T03:19:22.099Z,132
2017-06-30T03:19:48.200Z,136
2017-06-30T03:20:14.291Z,140
2017-06-30T03:20:40.388Z,144
2017-06-30T03:21:06.547Z,148
2017-06-30T03:21:32.668Z,152
2017-06-30T03:21:58.758Z,152
2017-06-30T03:22:24.895Z,156
2017-06-30T03:22:51.018Z,156
2017-06-30T03:23:17.109Z,160
2017-06-30T03:23:43.318Z,164
2017-06-30T03:24:09.417Z,168
2017-06-30T03:24:35.506Z,180
2017-06-30T03:25:01.631Z,188
2017-06-30T03:25:27.748Z,196
2017-06-30T03:25:53.853Z,204
2017-06-30T03:26:19.950Z,212
2017-06-30T03:26:46.095Z,220
2017-06-30T03:27:12.163Z,232
2017-06-30T03:27:38.266Z,240
2017-06-30T03:28:04.379Z,248
2017-06-30T03:28:30.483Z,260
2017-06-30T03:28:56.616Z,268
2017-06-30T03:29:22.702Z,280
2017-06-30T03:29:48.804Z,292
2017-06-30T03:30:14.937Z,304
2017-06-30T03:30:41.078Z,312
2017-06-30T03:31:07.208Z,324
2017-06-30T03:31:33.298Z,336
2017-06-30T03:31:59.448Z,344
2017-06-30T03:32:25.580Z,352
2017-06-30T03:32:51.665Z,360
2017-06-30T03:33:17.762Z,368
2017-06-30T03:33:43.894Z,376
2017-06-30T03:34:10.335Z,384
2017-06-30T03:34:36.455Z,396
2017-06-30T03:35:02.589Z,404
2017-06-30T03:35:28.682Z,412
2017-06-30T03:35:54.797Z,416
2017-06-30T03:36:20.905Z,424
2017-06-30T03:36:47.028Z,432
2017-06-30T03:37:13.142Z,436
2017-06-30T03:37:39.248Z,440
2017-06-30T03:38:05.352Z,452
2017-06-30T03:38:31.460Z,460
2017-06-30T03:38:57.590Z,468
2017-06-30T03:39:23.726Z,480
2017-06-30T03:39:49.840Z,492
2017-06-30T03:40:15.939Z,504
2017-06-30T03:40:42.072Z,516
2017-06-30T03:41:08.218Z,520
2017-06-30T03:41:34.340Z,524
2017-06-30T03:42:00.436Z,524
2017-06-30T03:42:26.537Z,528
2017-06-30T03:42:52.643Z,528
2017-06-30T03:43:18.730Z,528
2017-06-30T03:43:44.854Z,532
2017-06-30T03:44:10.958Z,548
2017-06-30T03:44:37.046Z,564
2017-06-30T03:45:03.140Z,564
2017-06-30T03:45:29.247Z,556
2017-06-30T03:45:55.363Z,552
2017-06-30T03:46:21.454Z,556
2017-06-30T03:46:47.591Z,568
2017-06-30T03:47:13.717Z,592
2017-06-30T03:47:39.818Z,608
2017-06-30T03:48:05.959Z,624
2017-06-30T03:48:32.055Z,636
2017-06-30T03:48:58.190Z,632
2017-06-30T03:49:24.311Z,616
2017-06-30T03:49:50.426Z,600
2017-06-30T03:50:16.533Z,592
2017-06-30T03:50:42.631Z,592
2017-06-30T03:51:08.717Z,600
2017-06-30T03:51:34.822Z,612
2017-06-30T03:52:00.921Z,612
2017-06-30T03:52:27.012Z,628
2017-06-30T03:52:53.114Z,636
2017-06-30T03:53:19.227Z,648
2017-06-30T03:53:45.337Z,668
2017-06-30T03:54:11.432Z,676
2017-06-30T03:54:37.521Z,692
2017-06-30T03:55:03.708Z,712
2017-06-30T03:55:29.836Z,732
2017-06-30T03:55:55.949Z,752
2017-06-30T03:56:22.076Z,776
2017-06-30T03:56:48.181Z,804
2017-06-30T03:57:14.267Z,836
2017-06-30T03:57:40.367Z,868
2017-06-30T03:58:06.473Z,904
2017-06-30T03:58:32.593Z,940
2017-06-30T03:58:58.696Z,980
2017-06-30T03:59:24.811Z,1028
2017-06-30T03:59:50.913Z,1076
2017-06-30T04:00:17.019Z,1132
2017-06-30T04:00:43.106Z,1184
2017-06-30T04:01:09.207Z,1236
2017-06-30T04:01:35.368Z,1284
2017-06-30T04:02:01.455Z,1324
2017-06-30T04:02:27.553Z,1368
2017-06-30T04:02:53.687Z,1408
2017-06-30T04:03:19.781Z,1448
2017-06-30T04:03:45.895Z,1492
2017-06-30T04:04:12.024Z,1532
2017-06-30T04:04:38.144Z,1572
2017-06-30T04:05:04.276Z,1616
2017-06-30T04:05:30.391Z,1664
2017-06-30T04:05:56.537Z,1688
2017-06-30T04:06:22.642Z,1652
2017-06-30T04:06:48.734Z,1576
2017-06-30T04:07:14.825Z,1540
2017-06-30T04:07:40.935Z,1572
2017-06-30T04:08:07.031Z,1612
2017-06-30T04:08:33.122Z,1656
2017-06-30T04:08:59.226Z,1700
2017-06-30T04:09:25.326Z,1744
2017-06-30T04:09:51.426Z,1768
2017-06-30T04:10:17.576Z,1780
2017-06-30T04:10:43.691Z,1788
2017-06-30T04:11:09.830Z,1808
2017-06-30T04:11:35.979Z,1796
2017-06-30T04:12:02.094Z,1736
2017-06-30T04:12:28.226Z,1656
2017-06-30T04:12:54.353Z,1588
2017-06-30T04:13:20.466Z,1556
2017-06-30T04:13:46.568Z,1564
2017-06-30T04:14:12.756Z,1572
2017-06-30T04:14:38.841Z,1600
2017-06-30T04:15:04.939Z,1640
2017-06-30T04:15:31.035Z,1712
2017-06-30T04:15:57.168Z,1820
2017-06-30T04:16:23.269Z,1920
2017-06-30T04:16:49.379Z,1992
2017-06-30T04:17:15.483Z,2048
2017-06-30T04:17:41.589Z,2120
2017-06-30T04:18:07.702Z,2188
2017-06-30T04:18:33.801Z,2228
2017-06-30T04:18:59.906Z,2256
2017-06-30T04:19:25.996Z,2280
2017-06-30T04:19:52.093Z,2240
2017-06-30T04:20:18.253Z,2192
2017-06-30T04:20:44.374Z,2156
2017-06-30T04:21:10.467Z,2168
2017-06-30T04:21:36.575Z,2240
2017-06-30T04:22:02.675Z,2308
2017-06-30T04:22:28.763Z,2376
2017-06-30T04:22:54.920Z,2420
2017-06-30T04:23:21.097Z,2444
2017-06-30T04:23:47.191Z,2432
2017-06-30T04:24:13.293Z,2424
2017-06-30T04:24:39.456Z,2432
2017-06-30T04:25:05.538Z,2496
2017-06-30T04:25:31.639Z,2632
2017-06-30T04:25:57.773Z,2792
2017-06-30T04:26:23.942Z,2932
2017-06-30T04:26:50.074Z,3060
2017-06-30T04:27:16.164Z,3176
2017-06-30T04:27:42.267Z,3260
2017-06-30T04:28:08.401Z,3320
2017-06-30T04:28:34.487Z,3384
2017-06-30T04:29:00.588Z,3456
2017-06-30T04:29:26.693Z,3528
2017-06-30T04:29:52.783Z,3584
2017-06-30T04:30:18.902Z,3628
2017-06-30T04:30:45.035Z,3632
2017-06-30T04:31:11.128Z,3588
2017-06-30T04:31:37.244Z,3520
2017-06-30T04:32:03.347Z,3456
2017-06-30T04:32:29.447Z,3396
2017-06-30T04:32:55.554Z,3344
2017-06-30T04:33:21.695Z,3300
2017-06-30T04:33:47.793Z,3264
2017-06-30T04:34:13.899Z,3236
2017-06-30T04:34:39.994Z,3224
2017-06-30T04:35:06.086Z,3220
2017-06-30T04:35:32.220Z,3216
2017-06-30T04:35:58.319Z,3196
2017-06-30T04:36:24.409Z,3176
2017-06-30T04:36:50.543Z,3140
2017-06-30T04:37:16.699Z,3112
2017-06-30T04:37:42.849Z,3080
2017-06-30T04:38:08.967Z,3056
2017-06-30T04:38:35.056Z,3044
2017-06-30T04:39:01.165Z,3036
2017-06-30T04:39:27.289Z,3032
2017-06-30T04:39:53.377Z,3036
2017-06-30T04:40:19.484Z,3052
2017-06-30T04:40:45.611Z,3068
2017-06-30T04:41:11.701Z,3096
2017-06-30T04:41:37.804Z,3128
2017-06-30T04:42:03.939Z,3164
2017-06-30T04:42:30.044Z,3208
2017-06-30T04:42:56.186Z,3256
2017-06-30T04:43:22.265Z,3304
2017-06-30T04:43:48.372Z,3348
2017-06-30T04:44:14.471Z,3400
2017-06-30T04:44:40.560Z,3440
2017-06-30T04:45:06.662Z,3488
2017-06-30T04:45:32.796Z,3556
2017-06-30T04:45:58.882Z,3636
2017-06-30T04:46:25.006Z,3724
2017-06-30T04:46:51.113Z,3808
2017-06-30T04:47:17.224Z,3896
2017-06-30T04:47:43.320Z,4008
2017-06-30T04:48:09.425Z,4112
2017-06-30T04:48:35.515Z,4228
2017-06-30T04:49:01.643Z,4364
2017-06-30T04:49:27.753Z,4516
2017-06-30T04:49:53.881Z,4672
2017-06-30T04:50:20.014Z,4812
2017-06-30T04:50:46.104Z,4908
2017-06-30T04:51:12.247Z,4956
2017-06-30T04:51:38.355Z,4984
2017-06-30T04:52:04.475Z,4984
2017-06-30T04:52:30.566Z,4956
2017-06-30T04:52:56.672Z,4928
2017-06-30T04:53:22.805Z,4948
2017-06-30T04:53:48.886Z,4952
2017-06-30T04:54:14.989Z,4948
2017-06-30T04:54:41.083Z,4956
2017-06-30T04:55:07.188Z,5000
2017-06-30T04:55:33.281Z,5028
2017-06-30T04:55:59.369Z,5064
2017-06-30T04:56:25.501Z,5124
2017-06-30T04:56:51.595Z,5196
2017-06-30T04:57:17.688Z,5264
2017-06-30T04:57:43.823Z,5348
2017-06-30T04:58:09.921Z,5444
2017-06-30T04:58:36.013Z,5536
2017-06-30T04:59:02.143Z,5620
2017-06-30T04:59:28.250Z,5680
2017-06-30T04:59:54.343Z,5720
2017-06-30T05:00:20.465Z,5772
2017-06-30T05:00:46.554Z,5824
2017-06-30T05:01:12.699Z,5868
2017-06-30T05:01:38.813Z,5920
2017-06-30T05:02:04.904Z,5996
2017-06-30T05:02:31.010Z,6072
2017-06-30T05:02:57.114Z,6132
2017-06-30T05:03:23.200Z,6176
2017-06-30T05:03:49.296Z,6228
2017-06-30T05:04:15.401Z,6276
2017-06-30T05:04:41.514Z,6328
2017-06-30T05:05:07.636Z,6396
2017-06-30T05:05:33.770Z,6476
2017-06-30T05:05:59.863Z,6576
2017-06-30T05:06:25.954Z,6676
2017-06-30T05:06:52.086Z,6784
2017-06-30T05:07:18.207Z,6896
2017-06-30T05:07:44.324Z,7000
2017-06-30T05:08:10.581Z,7100
2017-06-30T05:08:36.680Z,7200
2017-06-30T05:09:02.772Z,7304
2017-06-30T05:09:28.920Z,7404
2017-06-30T05:09:55.053Z,7504
2017-06-30T05:10:21.139Z,7596
2017-06-30T05:10:47.239Z,7716
2017-06-30T05:11:13.334Z,7840
2017-06-30T05:11:39.490Z,7948
2017-06-30T05:12:05.616Z,8048
2017-06-30T05:12:31.754Z,8172
2017-06-30T05:12:57.882Z,8252
2017-06-30T05:13:23.988Z,8324
2017-06-30T05:13:50.075Z,8416
2017-06-30T05:14:16.202Z,8476
2017-06-30T05:14:42.362Z,8528
2017-06-30T05:15:08.455Z,8576
2017-06-30T05:15:34.554Z,8604
2017-06-30T05:16:00.687Z,8628
2017-06-30T05:16:26.780Z,8652
2017-06-30T05:16:52.886Z,8680
2017-06-30T05:17:18.995Z,8708
2017-06-30T05:17:45.093Z,8740
2017-06-30T05:18:11.229Z,8780
2017-06-30T05:18:37.347Z,8820
2017-06-30T05:19:03.442Z,8860
2017-06-30T05:19:29.574Z,8900
2017-06-30T05:19:55.695Z,8948
2017-06-30T05:20:21.788Z,8992
2017-06-30T05:20:47.922Z,9040
2017-06-30T05:21:14.047Z,9100
2017-06-30T05:21:40.139Z,9172
2017-06-30T05:22:06.296Z,9248
2017-06-30T05:22:32.390Z,9320
2017-06-30T05:22:58.519Z,9380
2017-06-30T05:23:24.611Z,9448
2017-06-30T05:23:50.751Z,9496
2017-06-30T05:24:16.861Z,9536
2017-06-30T05:24:42.983Z,9560
2017-06-30T05:25:09.071Z,9572
2017-06-30T05:25:35.177Z,9568
2017-06-30T05:26:01.330Z,9560
2017-06-30T05:26:27.422Z,9552
2017-06-30T05:26:53.549Z,9536
2017-06-30T05:27:19.683Z,9520
2017-06-30T05:27:45.801Z,9512
2017-06-30T05:28:11.951Z,9504
2017-06-30T05:28:38.041Z,9488
2017-06-30T05:29:04.146Z,9472
2017-06-30T05:29:30.247Z,9456
2017-06-30T05:29:56.360Z,9452
2017-06-30T05:30:22.492Z,9512
2017-06-30T05:30:48.600Z,9620
2017-06-30T05:31:14.711Z,9752
2017-06-30T05:31:40.813Z,9884
2017-06-30T05:32:06.949Z,10012
2017-06-30T05:32:33.064Z,10156
2017-06-30T05:32:59.161Z,10280
2017-06-30T05:33:25.258Z,10396
2017-06-30T05:33:51.359Z,10492
2017-06-30T05:34:17.465Z,10592
2017-06-30T05:34:43.585Z,10692
2017-06-30T05:35:09.685Z,10808
2017-06-30T05:35:35.817Z,10920
2017-06-30T05:36:01.906Z,11028
2017-06-30T05:36:28.029Z,11160
2017-06-30T05:36:54.189Z,11308
2017-06-30T05:37:20.309Z,11468
2017-06-30T05:37:46.448Z,11644
2017-06-30T05:38:12.557Z,11820
2017-06-30T05:38:38.654Z,11984
2017-06-30T05:39:04.758Z,12140
2017-06-30T05:39:30.875Z,12296
2017-06-30T05:39:56.997Z,12436
2017-06-30T05:40:23.103Z,12548
2017-06-30T05:40:49.198Z,12632
2017-06-30T05:41:15.291Z,12704
2017-06-30T05:41:41.401Z,12752
2017-06-30T05:42:07.496Z,12792
2017-06-30T05:42:33.585Z,12836
2017-06-30T05:42:59.691Z,12876
2017-06-30T05:43:25.791Z,12916
2017-06-30T05:43:51.880Z,12928
2017-06-30T05:44:18.061Z,12952
2017-06-30T05:44:44.152Z,13020
2017-06-30T05:45:10.287Z,13052
2017-06-30T05:45:36.384Z,13100
2017-06-30T05:46:02.472Z,13156
2017-06-30T05:46:28.605Z,13228
2017-06-30T05:46:54.760Z,13304
2017-06-30T05:47:20.851Z,13380
2017-06-30T05:47:46.953Z,13448
2017-06-30T05:48:13.060Z,13532
2017-06-30T05:48:39.148Z,13628
2017-06-30T05:49:05.251Z,13732
2017-06-30T05:49:31.410Z,13832
2017-06-30T05:49:57.497Z,13916
2017-06-30T05:50:23.646Z,14028
2017-06-30T05:50:49.752Z,14104
2017-06-30T05:51:15.846Z,14148
2017-06-30T05:51:41.937Z,14184
2017-06-30T05:52:08.046Z,14220
2017-06-30T05:52:34.143Z,14264
2017-06-30T05:53:00.234Z,14308
2017-06-30T05:53:26.395Z,14364
2017-06-30T05:53:52.497Z,14416
2017-06-30T05:54:18.636Z,14492
2017-06-30T05:54:44.740Z,14560
2017-06-30T05:55:10.845Z,14616
2017-06-30T05:55:36.939Z,14668
2017-06-30T05:56:03.064Z,14712
2017-06-30T05:56:29.177Z,14764
2017-06-30T05:56:55.283Z,14820
2017-06-30T05:57:21.383Z,14880
2017-06-30T05:57:47.473Z,14944
2017-06-30T05:58:13.575Z,15028
2017-06-30T05:58:39.680Z,15120
2017-06-30T05:59:05.793Z,15232
2017-06-30T05:59:31.894Z,15336
2017-06-30T05:59:58.028Z,15460
2017-06-30T06:00:24.118Z,15596
2017-06-30T06:00:50.215Z,15720
2017-06-30T06:01:16.314Z,15832
2017-06-30T06:01:42.417Z,15936
2017-06-30T06:02:08.523Z,16024
2017-06-30T06:02:34.610Z,16088
2017-06-30T06:03:00.712Z,16092
2017-06-30T06:03:26.820Z,16064
2017-06-30T06:03:52.912Z,15992
2017-06-30T06:04:19.010Z,15896
2017-06-30T06:04:45.116Z,15784
2017-06-30T06:05:11.210Z,15688
2017-06-30T06:05:37.301Z,15600
2017-06-30T06:06:03.412Z,15532